Time;durP1;ratioP1;P1;durP2;ratioP2;P2;SDS_P1;SDS_P2;PMS_P1;PMS_P2;Temp;Humidity;BMP_temperature;BMP_pressure;BME280_temperature;BME280_humidity;BME280_pressure;Samples;Min_cycle;Max_cycle;Signal;HPM_P1;HPM_P2
2021/01/29 00:02:56;;;;;;;;;45.00;36.00;;;;;9.60;48.48;97104.19;6208698;28;125516;-59
2021/01/29 00:06:03;;;;;;;;;44.80;36.20;;;;;9.38;48.80;97093.56;6208362;28;126108;-60
2021/01/29 00:09:05;;;;;;;;;49.00;38.00;;;;;9.11;48.55;97085.53;6207331;28;127853;-60
2021/01/29 00:12:07;;;;;;;;;49.00;39.00;;;;;9.51;48.49;97125.38;6190187;28;126509;-60
2021/01/29 00:15:12;;;;;;;;;47.20;38.80;;;;;9.42;48.70;97138.50;6208974;28;126521;-60
2021/01/29 00:18:13;;;;;;;;;48.75;39.00;;;;;9.42;48.80;97138.50;6209937;28;126486;-59
2021/01/29 00:21:15;;;;;;;;;48.00;39.60;;;;;9.51;48.49;97125.38;6210251;28;126651;-60
2021/01/29 00:24:17;;;;;;;;;50.25;40.00;;;;;9.52;48.54;97122.44;6211111;28;126117;-61
2021/01/29 00:27:18;;;;;;;;;49.00;40.00;;;;;9.52;48.41;97121.63;6208336;28;127253;-60
2021/01/29 00:30:24;;;;;;;;;50.60;39.60;;;;;9.16;48.49;97082.06;6210700;28;127996;-60
2021/01/29 00:33:27;;;;;;;;;48.00;37.00;;;;;9.41;48.74;97109.97;6209656;28;126346;-60
2021/01/29 00:36:35;;;;;;;;;46.40;37.60;;;;;9.38;48.75;97099.72;6205939;28;124770;-60
2021/01/29 00:39:37;;;;;;;;;49.00;39.25;;;;;9.30;48.98;97094.81;6185033;28;125149;-60
2021/01/29 00:42:38;;;;;;;;;45.50;36.75;;;;;9.05;49.10;97052.41;6185635;28;127641;-59
2021/01/29 00:45:40;;;;;;;;;45.00;37.00;;;;;9.18;48.72;97069.19;6167628;28;127515;-60
2021/01/29 00:48:41;;;;;;;;;47.33;38.00;;;;;9.26;48.92;97090.22;6166793;28;127527;-60
2021/01/29 00:51:43;;;;;;;;;46.00;36.00;;;;;9.15;49.15;97081.25;6194205;28;126572;-60
2021/01/29 00:54:44;;;;;;;;;49.00;37.00;;;;;9.32;48.99;97091.88;6190879;28;124310;-60
2021/01/29 00:57:46;;;;;;;;;44.00;36.00;;;;;9.13;48.91;97068.09;6191456;28;125199;-60
2021/01/29 01:01:24;;;;;;;;;43.20;35.00;;;;;9.39;48.82;97085.22;6108716;28;126220;-60
2021/01/29 01:04:28;;;;;;;;;38.00;32.50;;;;;9.27;48.78;97065.78;6191157;28;125254;-59
2021/01/29 01:07:29;;;;;;;;;37.00;32.00;;;;;9.42;48.66;97086.59;6206523;28;127752;-60
2021/01/29 01:10:50;;;;;;;;;43.00;34.50;;;;;9.36;48.63;97064.22;6206319;28;127044;-60
2021/01/29 01:14:10;;;;;;;;;36.00;32.00;;;;;9.50;48.48;97094.97;6191442;28;125728;-60
2021/01/29 01:17:18;;;;;;;;;35.20;30.00;;;;;9.49;48.49;97098.72;6208750;28;125965;-61
2021/01/29 01:20:40;;;;;;;;;31.60;26.20;;;;;9.46;48.43;97090.38;6191660;28;125880;-61
2021/01/29 01:23:42;;;;;;;;;30.00;26.00;;;;;9.43;48.44;97086.31;6191475;28;126906;-61
2021/01/29 01:26:43;;;;;;;;;29.00;26.20;;;;;9.40;48.55;97102.16;6197631;28;127066;-61
2021/01/29 01:30:36;;;;;;;;;30.60;27.60;;;;;9.41;48.49;97101.09;6132231;28;126992;-61
2021/01/29 01:33:43;;;;;;;;;29.25;26.75;;;;;9.32;48.61;97100.78;6208322;28;124779;-61
2021/01/29 01:36:58;;;;;;;;;28.00;26.00;;;;;9.33;48.76;97104.28;6185421;28;123742;-61
2021/01/29 01:40:40;;;;;;;;;29.60;27.00;;;;;9.34;48.75;97108.56;6200580;28;127059;-61
2021/01/29 01:43:46;;;;;;;;;31.00;27.80;;;;;9.35;48.54;97113.69;6183531;28;126969;-60
2021/01/29 01:47:20;;;;;;;;;30.60;28.00;;;;;9.35;48.73;97116.38;6182841;28;125360;-60
2021/01/29 01:50:49;;;;;;;;;33.20;30.80;;;;;9.04;49.24;97107.22;6181510;28;124671;-60
2021/01/29 01:53:57;;;;;;;;;34.60;30.80;;;;;8.90;48.82;97065.72;6164996;28;127172;-61
2021/01/29 01:57:04;;;;;;;;;33.60;30.00;;;;;9.15;49.30;97124.28;6164005;28;124906;-60
2021/01/29 02:00:29;;;;;;;;;34.00;30.00;;;;;9.13;49.02;97121.03;6168533;28;126610;-60
2021/01/29 02:03:56;;;;;;;;;35.60;31.60;;;;;9.22;49.04;97111.44;6172986;28;124339;-60
2021/01/29 02:07:26;;;;;;;;;36.50;32.00;;;;;9.24;48.96;97111.16;6208005;28;124502;-61
2021/01/29 02:10:49;;;;;;;;;37.00;32.00;;;;;9.16;49.17;97104.38;6207489;28;126291;-61
2021/01/29 02:13:59;;;;;;;;;35.75;32.25;;;;;9.18;49.28;97109.53;6190491;28;125131;-61
2021/01/29 02:17:39;;;;;;;;;37.00;30.50;;;;;9.21;49.24;97117.88;6206894;28;126174;-61
2021/01/29 02:21:32;;;;;;;;;36.00;32.00;;;;;9.25;49.06;97118.97;6200902;28;125497;-61
2021/01/29 02:25:24;;;;;;;;;35.00;31.00;;;;;9.21;49.23;97127.81;6195438;28;125802;-61
2021/01/29 02:29:12;;;;;;;;;39.60;33.00;;;;;9.27;49.10;97134.88;6193698;28;125622;-60
2021/01/29 02:32:52;;;;;;;;;36.40;32.00;;;;;9.29;49.00;97146.97;6194605;28;124805;-61
2021/01/29 02:36:07;;;;;;;;;39.00;32.80;;;;;9.17;49.40;97138.28;6179350;28;125203;-61
2021/01/29 02:39:23;;;;;;;;;39.40;33.00;;;;;9.23;49.13;97137.25;6169314;28;125846;-61
2021/01/29 02:42:33;;;;;;;;;38.25;33.00;;;;;9.20;49.33;97127.00;6188000;28;127545;-61
2021/01/29 02:45:54;;;;;;;;;39.60;33.00;;;;;9.25;49.25;97129.75;6193974;28;127744;-61
2021/01/29 02:49:17;;;;;;;;;42.50;34.50;;;;;9.34;49.01;97140.81;6191221;28;125814;-61
2021/01/29 02:53:01;;;;;;;;;39.60;33.00;;;;;9.18;48.91;97112.22;6183093;28;125774;-61
2021/01/29 02:57:01;;;;;;;;;39.00;32.00;;;;;9.35;49.03;97153.22;6151878;28;124499;-60
2021/01/29 03:00:43;;;;;;;;;40.00;33.80;;;;;9.35;49.03;97154.03;6186700;28;125295;-61
2021/01/29 03:03:52;;;;;;;;;41.50;33.50;;;;;9.27;49.35;97148.31;6172485;28;127040;-61
2021/01/29 03:08:07;;;;;;;;;39.60;33.00;;;;;9.27;49.48;97169.81;6087374;28;127301;-60
2021/01/29 03:11:30;;;;;;;;;41.00;34.00;;;;;9.25;49.59;97164.69;6124580;28;126562;-62
2021/01/29 03:14:59;;;;;;;;;37.00;32.00;;;;;9.26;49.39;97157.44;6197556;28;126013;-61
2021/01/29 03:18:19;;;;;;;;;43.20;34.20;;;;;9.27;49.17;97167.13;6211895;28;125780;-61
2021/01/29 03:21:45;;;;;;;;;36.60;32.00;;;;;9.27;48.88;97159.88;6197546;28;125946;-60
2021/01/29 03:25:13;;;;;;;;;36.60;32.00;;;;;9.26;48.87;97170.88;6201466;28;127853;-61
2021/01/29 03:28:40;;;;;;;;;36.50;31.00;;;;;9.30;48.94;97180.06;6187216;28;127088;-61
2021/01/29 03:32:03;;;;;;;;;37.00;32.00;;;;;9.28;49.02;97184.91;6189556;28;124634;-61
2021/01/29 03:35:42;;;;;;;;;33.00;30.00;;;;;9.29;48.34;97197.25;6211148;28;125826;-61
2021/01/29 03:39:16;;;;;;;;;25.00;23.20;;;;;9.33;46.83;97182.25;6210648;28;125973;-61
2021/01/29 03:42:55;;;;;;;;;27.25;24.25;;;;;9.23;45.89;97169.53;6210036;28;127195;-61
2021/01/29 03:46:21;;;;;;;;;30.00;26.00;;;;;9.31;45.68;97187.88;6193834;28;125005;-62
2021/01/29 03:50:07;;;;;;;;;30.00;25.00;;;;;9.39;45.30;97210.78;6110368;28;126441;-61
2021/01/29 03:53:35;;;;;;;;;25.00;24.80;;;;;9.16;45.26;97168.09;6190920;28;125929;-61
2021/01/29 03:57:16;;;;;;;;;28.00;24.67;;;;;9.41;44.81;97214.88;6209221;28;126935;-61
2021/01/29 04:00:51;;;;;;;;;31.60;28.00;;;;;9.40;44.88;97218.63;6210886;28;124540;-61
2021/01/29 04:04:27;;;;;;;;;29.50;28.00;;;;;9.39;44.78;97221.56;6170274;28;125183;-61
2021/01/29 04:07:50;;;;;;;;;30.50;27.50;;;;;9.35;44.83;97223.94;6186276;28;126733;-60
2021/01/29 04:11:23;;;;;;;;;32.00;28.00;;;;;9.38;44.82;97233.41;6179184;28;125960;-61
2021/01/29 04:14:54;;;;;;;;;31.00;27.00;;;;;9.43;44.54;97242.31;6192647;28;127056;-62
2021/01/29 04:18:11;;;;;;;;;29.00;25.40;;;;;9.18;44.41;97203.63;6193291;28;126212;-61
2021/01/29 04:21:27;;;;;;;;;31.00;30.00;;;;;9.40;44.13;97229.38;6207629;28;125534;-61
2021/01/29 04:24:40;;;;;;;;;31.40;28.00;;;;;9.30;43.79;97236.53;6187470;28;126904;-62
2021/01/29 04:27:46;;;;;;;;;33.50;29.50;;;;;9.17;44.36;97223.50;6185325;28;127096;-62
2021/01/29 04:30:52;;;;;;;;;32.40;28.00;;;;;9.03;43.79;97225.78;6185126;28;126653;-61
2021/01/29 04:34:01;;;;;;;;;27.80;26.00;;;;;9.08;43.44;97239.28;6184840;28;127108;-61
2021/01/29 04:37:09;;;;;;;;;28.60;26.00;;;;;9.12;43.52;97240.38;6167771;28;125363;-61
2021/01/29 04:40:34;;;;;;;;;32.00;28.00;;;;;9.12;42.91;97243.06;6186023;28;127157;-62
2021/01/29 04:43:57;;;;;;;;;28.00;24.60;;;;;9.04;42.86;97246.22;6185442;28;124722;-62
2021/01/29 04:47:19;;;;;;;;;26.00;24.40;;;;;9.09;42.50;97243.56;6183024;28;127843;-62
2021/01/29 04:50:29;;;;;;;;;23.20;22.20;;;;;9.14;42.25;97238.22;6182547;28;126085;-62
2021/01/29 04:53:47;;;;;;;;;28.00;24.50;;;;;9.13;41.84;97239.31;6185566;28;126235;-62
2021/01/29 04:56:58;;;;;;;;;26.00;22.00;;;;;9.01;41.82;97235.94;6165977;28;124699;-62
2021/01/29 05:00:18;;;;;;;;;25.60;23.60;;;;;8.96;41.79;97231.34;6167197;28;126956;-61
2021/01/29 05:03:49;;;;;;;;;25.60;24.00;;;;;8.89;42.05;97236.09;6188987;28;125520;-61
2021/01/29 05:07:40;;;;;;;;;26.00;23.60;;;;;8.78;42.46;97242.41;6201336;28;126007;-61
2021/01/29 05:11:12;;;;;;;;;22.00;19.40;;;;;8.79;42.23;97237.84;6189330;28;127205;-62
2021/01/29 05:14:43;;;;;;;;;22.60;22.00;;;;;8.83;42.55;97241.66;6201098;28;125597;-61
2021/01/29 05:18:08;;;;;;;;;22.60;20.20;;;;;8.81;41.89;97247.28;6184603;28;127387;-62
2021/01/29 05:22:02;;;;;;;;;22.00;21.00;;;;;8.91;41.55;97246.59;6199302;28;126143;-61
2021/01/29 05:25:34;;;;;;;;;23.00;21.00;;;;;8.90;40.90;97245.75;6173642;28;125413;-61
2021/01/29 05:28:38;;;;;;;;;19.00;16.00;;;;;8.91;39.87;97246.59;6190392;28;126411;-61
2021/01/29 05:31:57;;;;;;;;;17.00;15.25;;;;;8.86;39.54;97235.78;6193278;28;126874;-61
2021/01/29 05:35:17;;;;;;;;;17.50;17.00;;;;;8.81;39.96;97244.59;6188158;28;126116;-61
2021/01/29 05:38:21;;;;;;;;;17.40;17.40;;;;;8.70;40.18;97243.63;6184803;28;126878;-61
2021/01/29 05:41:45;;;;;;;;;17.00;16.00;;;;;8.61;40.01;97234.41;6165004;28;126101;-62
2021/01/29 05:44:52;;;;;;;;;17.00;15.00;;;;;8.69;40.25;97249.28;6165706;28;124846;-61
2021/01/29 05:48:12;;;;;;;;;17.00;15.00;;;;;8.65;40.36;97251.63;6213922;28;125660;-62
2021/01/29 05:51:26;;;;;;;;;18.40;15.80;;;;;8.56;40.40;97249.63;6193706;28;124767;-63
2021/01/29 05:54:46;;;;;;;;;16.00;15.00;;;;;8.44;40.38;97222.91;6195090;28;126994;-61
2021/01/29 05:58:23;;;;;;;;;18.00;15.60;;;;;8.32;40.52;97250.91;6182690;28;124856;-61
2021/01/29 06:01:33;;;;;;;;;17.75;15.00;;;;;8.35;40.31;97253.13;6181346;28;126050;-61
2021/01/29 06:05:12;;;;;;;;;17.20;15.60;;;;;8.29;40.42;97268.31;6194164;28;125850;-61
2021/01/29 06:08:44;;;;;;;;;16.60;15.00;;;;;8.20;40.42;97275.97;6182918;28;126257;-62
2021/01/29 06:12:20;;;;;;;;;15.00;14.00;;;;;8.11;40.49;97277.41;6183074;28;124909;-62
2021/01/29 06:15:47;;;;;;;;;19.60;16.00;;;;;8.00;40.53;97277.50;6187587;28;126211;-61
2021/01/29 06:19:21;;;;;;;;;15.00;13.00;;;;;7.93;40.75;97255.38;6188109;28;128017;-61
2021/01/29 06:23:05;;;;;;;;;18.40;17.00;;;;;7.81;41.22;97252.81;6208390;28;127024;-61
2021/01/29 06:26:45;;;;;;;;;16.00;14.80;;;;;7.76;41.42;97261.59;6208310;28;124833;-61
2021/01/29 06:30:12;;;;;;;;;17.20;15.80;;;;;7.73;41.69;97266.59;6197726;28;127078;-61
2021/01/29 06:33:17;;;;;;;;;17.40;17.00;;;;;7.75;42.09;97281.41;6207480;28;124961;-61
2021/01/29 06:36:24;;;;;;;;;18.40;16.80;;;;;7.72;42.45;97275.72;6204670;28;124396;-61
2021/01/29 06:39:37;;;;;;;;;20.50;18.00;;;;;7.67;42.66;97273.75;6181767;28;125994;-61
2021/01/29 06:42:54;;;;;;;;;18.40;16.40;;;;;7.28;42.53;97234.47;6202455;28;125990;-62
2021/01/29 06:46:08;;;;;;;;;19.00;16.40;;;;;7.69;42.12;97274.31;6201300;28;123656;-62
2021/01/29 06:49:29;;;;;;;;;20.00;17.40;;;;;7.83;41.75;97275.63;6188592;28;126336;-62
2021/01/29 06:53:02;;;;;;;;;18.40;16.00;;;;;8.40;40.70;97278.16;6138890;28;125730;-61
2021/01/29 06:56:28;;;;;;;;;17.80;16.20;;;;;8.92;40.33;97214.09;6185384;28;126778;-60
2021/01/29 06:59:38;;;;;;;;;19.50;18.50;;;;;10.76;36.92;97269.16;6189504;28;124697;-61
2021/01/29 07:03:02;;;;;;;;;17.60;16.00;;;;;12.78;33.54;97280.25;6205779;28;127089;-60
2021/01/29 07:06:35;;;;;;;;;18.00;17.00;;;;;14.45;30.75;97273.06;6201218;28;127722;-59
2021/01/29 07:10:04;;;;;;;;;16.20;14.20;;;;;15.31;29.00;97277.53;6198089;28;126888;-59
2021/01/29 07:13:35;;;;;;;;;15.00;13.00;;;;;16.37;26.89;97268.63;6207459;28;125005;-61
2021/01/29 07:16:55;;;;;;;;;11.00;10.40;;;;;16.93;25.55;97251.31;6192413;28;125771;-60
2021/01/29 07:20:02;;;;;;;;;10.60;9.60;;;;;17.58;24.38;97262.78;6203096;28;126141;-61
2021/01/29 07:23:19;;;;;;;;;10.20;9.20;;;;;19.03;23.05;97253.19;6197125;28;125985;-59
2021/01/29 07:26:23;;;;;;;;;10.40;9.40;;;;;20.08;21.88;97253.09;6204502;28;127719;-61
2021/01/29 07:29:27;;;;;;;;;10.40;10.00;;;;;21.10;20.80;97254.00;6209949;28;126621;-60
2021/01/29 07:32:45;;;;;;;;;14.00;13.00;;;;;22.01;20.06;97239.59;6201861;28;125581;-60
2021/01/29 07:35:56;;;;;;;;;12.60;12.00;;;;;22.17;19.50;97235.09;6208262;28;125804;-59
2021/01/29 07:39:25;;;;;;;;;14.00;14.00;;;;;21.17;20.39;97240.59;6211000;28;126017;-59
2021/01/29 07:42:48;;;;;;;;;14.60;13.20;;;;;19.63;21.67;97230.72;6209690;28;124823;-61
2021/01/29 07:46:08;;;;;;;;;17.80;15.00;;;;;18.49;22.93;97236.06;6209684;28;125841;-60
2021/01/29 07:49:20;;;;;;;;;17.00;15.40;;;;;18.06;23.70;97229.53;6209234;28;127284;-61
2021/01/29 07:52:32;;;;;;;;;15.00;14.00;;;;;18.67;22.77;97217.88;6202519;28;126225;-61
2021/01/29 07:56:04;;;;;;;;;17.00;16.00;;;;;19.21;22.57;97211.16;6209822;28;125985;-61
2021/01/29 07:59:33;;;;;;;;;18.00;16.00;;;;;20.49;20.88;97208.78;6211703;28;126912;-60
2021/01/29 08:02:54;;;;;;;;;14.00;14.00;;;;;21.66;20.04;97172.41;6214182;28;127012;-62
2021/01/29 08:06:08;;;;;;;;;17.40;16.60;;;;;22.74;18.83;97199.47;6208501;28;125474;-63
2021/01/29 08:09:25;;;;;;;;;15.80;14.00;;;;;23.73;17.62;97194.41;6200452;28;124571;-63
2021/01/29 08:12:37;;;;;;;;;14.80;14.20;;;;;24.37;17.18;97188.00;6188616;28;126038;-62
2021/01/29 08:15:58;;;;;;;;;14.00;13.00;;;;;24.41;16.76;97169.59;6208532;28;124826;-62
2021/01/29 08:19:19;;;;;;;;;16.80;15.40;;;;;24.19;16.69;97183.94;6208350;28;127599;-62
2021/01/29 08:22:55;;;;;;;;;16.40;14.40;;;;;23.26;17.38;97179.59;6197855;28;125887;-60
2021/01/29 08:26:11;;;;;;;;;15.50;15.00;;;;;22.21;18.11;97183.06;6198743;28;125946;-61
2021/01/29 08:29:30;;;;;;;;;14.20;14.20;;;;;21.44;18.80;97177.09;6209087;28;125918;-62
2021/01/29 08:33:02;;;;;;;;;15.60;14.00;;;;;21.32;18.58;97171.53;6205470;28;127025;-61
2021/01/29 08:36:06;;;;;;;;;15.00;14.00;;;;;22.30;18.35;97168.13;6196844;28;127181;-62
2021/01/29 08:39:25;;;;;;;;;16.75;15.75;;;;;23.26;17.55;97163.09;6209704;28;128856;-61
2021/01/29 08:42:58;;;;;;;;;16.00;16.00;;;;;24.01;16.95;97146.81;6209908;28;126623;-61
2021/01/29 08:46:17;;;;;;;;;17.00;15.00;;;;;24.73;16.62;97156.63;6208452;28;124798;-62
2021/01/29 08:49:50;;;;;;;;;15.00;14.00;;;;;25.03;16.07;97157.00;6193247;28;127266;-62
2021/01/29 08:53:04;;;;;;;;;17.50;15.50;;;;;24.61;16.63;97151.22;6205472;28;126625;-62
2021/01/29 08:56:43;;;;;;;;;18.50;18.00;;;;;24.72;16.52;97154.25;6209446;28;126150;-61
2021/01/29 08:59:45;;;;;;;;;15.50;14.25;;;;;24.70;15.94;97116.03;6202012;28;127502;-61
2021/01/29 09:02:58;;;;;;;;;16.20;14.80;;;;;25.07;15.57;97157.13;6212209;28;125091;-60
2021/01/29 09:06:16;;;;;;;;;16.40;15.40;;;;;25.58;15.46;97164.22;6191412;28;127481;-61
2021/01/29 09:09:22;;;;;;;;;13.80;12.80;;;;;25.90;14.56;97162.16;6209147;28;126199;-61
2021/01/29 09:12:27;;;;;;;;;13.75;12.25;;;;;25.76;14.57;97164.59;6197450;28;126865;-62
2021/01/29 09:15:53;;;;;;;;;16.00;15.00;;;;;26.01;14.74;97156.84;6208513;28;125429;-62
2021/01/29 09:19:03;;;;;;;;;13.60;13.00;;;;;25.98;14.04;97161.13;6209325;28;127766;-61
2021/01/29 09:22:11;;;;;;;;;15.00;14.00;;;;;26.40;14.58;97168.66;6186857;28;126617;-61
2021/01/29 09:25:30;;;;;;;;;16.80;14.60;;;;;26.19;14.70;97174.56;6211732;28;126944;-60
2021/01/29 09:28:39;;;;;;;;;18.60;15.00;;;;;26.00;14.75;97174.59;6178506;28;123888;-62
2021/01/29 09:31:41;;;;;;;;;17.00;16.00;;;;;25.71;14.81;97171.22;6206688;28;124760;-62
2021/01/29 09:34:48;;;;;;;;;19.60;17.00;;;;;25.67;14.91;97170.34;6207282;28;125950;-62
2021/01/29 09:37:54;;;;;;;;;16.60;16.00;;;;;25.14;14.67;97147.03;6208195;28;124740;-62
2021/01/29 09:41:12;;;;;;;;;18.40;17.00;;;;;25.51;14.89;97175.06;6204791;28;125879;-61
2021/01/29 09:44:47;;;;;;;;;20.00;18.00;;;;;25.32;14.98;97159.28;6188104;28;124646;-61
2021/01/29 09:47:57;;;;;;;;;17.00;16.00;;;;;25.30;14.93;97150.59;6186442;28;127207;-61
2021/01/29 09:51:28;;;;;;;;;19.60;18.60;;;;;25.22;15.46;97136.97;6205516;28;126061;-61
2021/01/29 09:55:09;;;;;;;;;22.60;21.00;;;;;24.96;15.18;97132.84;6192497;28;127211;-61
2021/01/29 09:58:31;;;;;;;;;23.20;20.60;;;;;24.51;15.92;97125.00;6196995;28;126071;-61
2021/01/29 10:01:40;;;;;;;;;22.50;20.00;;;;;24.14;15.91;97083.09;6210841;28;125532;-62
2021/01/29 10:05:04;;;;;;;;;20.20;18.20;;;;;24.61;15.54;97107.16;6213337;28;124627;-61
2021/01/29 10:08:08;;;;;;;;;16.50;14.50;;;;;24.30;13.87;97105.19;6180180;28;126330;-62
2021/01/29 10:11:10;;;;;;;;;25.00;21.00;;;;;23.80;15.17;97100.25;6206885;28;126007;-61
2021/01/29 10:14:24;;;;;;;;;24.50;21.00;;;;;23.46;15.82;97104.38;6203775;28;127431;-61
2021/01/29 10:17:32;;;;;;;;;24.80;19.60;;;;;22.84;16.08;97100.13;6206445;28;123850;-61
2021/01/29 10:20:37;;;;;;;;;22.80;20.00;;;;;22.19;16.40;97094.78;6221977;28;125956;-60
2021/01/29 10:23:48;;;;;;;;;22.00;19.80;;;;;21.95;16.69;97106.50;6206712;28;125644;-62
2021/01/29 10:26:59;;;;;;;;;24.80;22.40;;;;;21.82;17.20;97110.31;6206336;28;126854;-62
2021/01/29 10:30:08;;;;;;;;;24.50;22.00;;;;;21.63;17.58;97113.56;6190270;28;127122;-61
2021/01/29 10:33:45;;;;;;;;;28.00;26.00;;;;;21.32;17.56;97104.94;6206244;28;126097;-60
2021/01/29 10:37:07;;;;;;;;;33.40;25.00;;;;;21.04;17.92;97108.16;6188719;28;127111;-61
2021/01/29 10:40:27;;;;;;;;;29.50;27.75;;;;;20.62;18.57;97114.72;6217843;28;125202;-61
2021/01/29 10:43:38;;;;;;;;;28.00;26.00;;;;;21.05;18.53;97096.09;6192500;28;127064;-61
2021/01/29 10:46:51;;;;;;;;;22.80;21.80;;;;;21.41;17.21;97084.53;6211243;28;127666;-61
2021/01/29 10:49:59;;;;;;;;;25.50;21.00;;;;;21.92;16.96;97102.47;6200225;28;124889;-60
2021/01/29 10:53:03;;;;;;;;;22.00;20.00;;;;;22.26;16.49;97084.84;6205441;28;127201;-61
2021/01/29 10:56:13;;;;;;;;;21.00;20.40;;;;;22.02;16.04;97071.88;6211250;28;127681;-62
2021/01/29 10:59:30;;;;;;;;;21.60;20.60;;;;;21.31;16.25;97060.28;6210049;28;125837;-63
2021/01/29 11:02:35;;;;;;;;;24.00;22.00;;;;;20.67;16.34;97065.22;6206719;28;125937;-61
2021/01/29 11:05:42;;;;;;;;;22.00;20.00;;;;;20.58;16.21;97048.84;6209997;28;126244;-62
2021/01/29 11:08:49;;;;;;;;;20.00;19.00;;;;;20.93;15.73;97013.81;6212055;28;124725;-62
2021/01/29 11:12:02;;;;;;;;;21.00;19.00;;;;;21.95;15.81;97052.41;6211041;28;124681;-61
2021/01/29 11:15:18;;;;;;;;;24.00;20.40;;;;;22.39;15.94;97028.81;6211379;28;126360;-64
2021/01/29 11:18:29;;;;;;;;;21.00;18.00;;;;;22.02;15.37;97032.66;6210142;28;124793;-61
2021/01/29 11:21:42;;;;;;;;;22.00;19.00;;;;;21.33;15.53;97032.53;6204706;28;125824;-60
2021/01/29 11:24:49;;;;;;;;;20.00;17.00;;;;;20.54;16.30;97022.44;6211162;28;125424;-61
2021/01/29 11:28:20;;;;;;;;;19.00;18.00;;;;;19.76;16.75;97006.34;6210789;28;126048;-62
2021/01/29 11:31:33;;;;;;;;;18.50;18.50;;;;;18.98;16.84;97016.56;6201812;28;123735;-60
2021/01/29 11:34:37;;;;;;;;;16.60;15.00;;;;;18.33;17.72;97005.69;6203677;28;125039;-61
2021/01/29 11:37:58;;;;;;;;;18.80;16.40;;;;;17.68;18.12;97005.59;6182379;28;126444;-61
2021/01/29 11:41:21;;;;;;;;;17.00;16.00;;;;;17.30;18.43;97003.25;6189683;28;126091;-61
2021/01/29 11:44:35;;;;;;;;;17.40;15.00;;;;;16.91;18.83;97000.41;6210126;28;126286;-61
2021/01/29 11:47:54;;;;;;;;;16.40;14.20;;;;;16.64;19.21;96997.78;6196813;28;125301;-62
2021/01/29 11:51:05;;;;;;;;;22.00;19.00;;;;;16.45;19.47;96989.72;6210270;28;125927;-61
2021/01/29 11:54:18;;;;;;;;;22.00;20.00;;;;;16.36;20.41;96975.25;6209119;28;125980;-60
2021/01/29 11:57:20;;;;;;;;;18.80;18.00;;;;;16.33;20.03;96979.38;6193138;28;127056;-62
2021/01/29 12:00:41;;;;;;;;;18.60;18.60;;;;;16.41;19.93;96984.09;6206589;28;125772;-62
2021/01/29 12:04:09;;;;;;;;;19.20;15.80;;;;;16.59;19.39;96976.13;6209737;28;127157;-64
2021/01/29 12:07:36;;;;;;;;;22.60;20.00;;;;;16.57;19.79;96927.44;6192593;28;128192;-61
2021/01/29 12:10:46;;;;;;;;;19.50;17.75;;;;;16.91;19.09;96958.81;6199660;28;125504;-63
2021/01/29 12:13:54;;;;;;;;;20.00;18.00;;;;;17.22;19.31;96952.28;6200773;28;126025;-64
2021/01/29 12:16:59;;;;;;;;;20.00;19.00;;;;;17.50;19.13;96941.19;6205957;28;126616;-63
2021/01/29 12:20:07;;;;;;;;;21.00;20.00;;;;;17.73;18.60;96940.06;6197214;28;125892;-63
2021/01/29 12:23:08;;;;;;;;;19.75;18.00;;;;;17.96;18.60;96941.59;6209851;28;124824;-64
2021/01/29 12:26:34;;;;;;;;;20.00;17.00;;;;;18.21;18.33;96931.06;6200335;28;126553;-62
2021/01/29 12:29:51;;;;;;;;;16.00;14.00;;;;;17.44;17.45;96807.09;6195714;28;125187;-62
2021/01/29 12:33:14;;;;;;;;;17.60;15.80;;;;;17.95;17.76;96928.25;6207569;28;126051;-62
2021/01/29 12:36:19;;;;;;;;;19.00;17.00;;;;;17.58;18.20;96926.84;6210162;28;126903;-61
2021/01/29 12:39:27;;;;;;;;;17.00;15.60;;;;;17.12;18.32;96919.84;6192147;28;125991;-60
2021/01/29 12:42:56;;;;;;;;;15.20;13.00;;;;;16.83;18.67;96924.94;6209336;28;125002;-62
2021/01/29 12:46:04;;;;;;;;;20.00;16.00;;;;;16.43;18.83;96911.16;6205206;28;124535;-62
2021/01/29 12:49:23;;;;;;;;;18.00;16.00;;;;;16.00;19.38;96901.81;6190999;28;123477;-62
2021/01/29 12:52:33;;;;;;;;;17.25;16.00;;;;;15.64;19.83;96907.16;6200512;28;123993;-61
2021/01/29 12:56:04;;;;;;;;;17.40;15.60;;;;;15.35;20.03;96904.69;6191679;28;127042;-61
2021/01/29 12:59:10;;;;;;;;;17.33;16.33;;;;;15.04;20.77;96900.94;6207120;28;126036;-62
2021/01/29 13:02:45;;;;;;;;;18.00;15.00;;;;;14.60;20.82;96866.97;6201788;28;124017;-63
2021/01/29 13:05:49;;;;;;;;;16.75;16.00;;;;;14.51;21.02;96892.34;6196080;28;125576;-62
2021/01/29 13:09:09;;;;;;;;;17.40;16.00;;;;;14.17;21.40;96877.06;6208434;28;125205;-61
2021/01/29 13:12:20;;;;;;;;;19.00;16.50;;;;;13.94;22.03;96886.09;6201891;28;126130;-62
2021/01/29 13:15:56;;;;;;;;;20.40;18.00;;;;;13.78;21.95;96880.06;6205485;28;126768;-61
2021/01/29 13:19:05;;;;;;;;;21.00;17.00;;;;;13.65;22.08;96878.06;6207081;28;125976;-62
2021/01/29 13:22:19;;;;;;;;;18.00;17.20;;;;;13.50;22.69;96874.72;6203755;28;126307;-61
2021/01/29 13:25:29;;;;;;;;;21.60;18.00;;;;;13.37;23.06;96873.53;6191000;28;126131;-62
2021/01/29 13:28:36;;;;;;;;;20.00;19.00;;;;;13.24;23.17;96877.72;6189564;28;125535;-61
2021/01/29 13:31:38;;;;;;;;;18.20;17.20;;;;;13.10;23.46;96879.47;6204300;28;124733;-62
2021/01/29 13:34:43;;;;;;;;;23.00;20.25;;;;;12.97;23.35;96874.75;6203061;28;125050;-62
2021/01/29 13:37:46;;;;;;;;;22.00;20.00;;;;;12.87;24.06;96872.94;6207930;28;126040;-61
2021/01/29 13:40:47;;;;;;;;;22.60;21.00;;;;;12.63;24.00;96863.97;6203140;28;126634;-61
2021/01/29 13:43:50;;;;;;;;;21.00;19.00;;;;;12.70;24.27;96878.00;6182345;28;126645;-63
2021/01/29 13:46:52;;;;;;;;;21.00;19.50;;;;;12.67;24.24;96862.31;6169681;28;126182;-64
2021/01/29 13:50:11;;;;;;;;;20.00;18.00;;;;;12.59;24.22;96854.84;6203795;28;97386;-63
2021/01/29 13:53:28;;;;;;;;;22.20;21.20;;;;;12.55;24.49;96857.31;6208128;28;126541;-63
2021/01/29 13:56:39;;;;;;;;;24.00;22.00;;;;;12.47;24.26;96857.88;6206737;28;124946;-63
2021/01/29 13:59:45;;;;;;;;;21.60;20.60;;;;;12.36;24.67;96836.66;6207138;28;126063;-62
2021/01/29 14:02:58;;;;;;;;;21.20;19.20;;;;;12.39;24.98;96841.47;6199284;28;126159;-60
2021/01/29 14:06:01;;;;;;;;;20.80;17.40;;;;;12.25;24.46;96827.81;6204524;28;124741;-62
2021/01/29 14:09:04;;;;;;;;;20.00;17.80;;;;;12.35;24.98;96843.16;6206254;28;125972;-62
2021/01/29 14:12:34;;;;;;;;;20.00;18.00;;;;;12.26;24.62;96837.53;6201808;28;125266;-62
2021/01/29 14:15:50;;;;;;;;;21.75;19.00;;;;;12.15;24.38;96836.81;6206641;28;124783;-63
2021/01/29 14:19:19;;;;;;;;;24.50;21.00;;;;;12.05;24.84;96844.97;6202954;28;124604;-63
2021/01/29 14:22:29;;;;;;;;;22.00;20.00;;;;;11.98;24.97;96839.06;6198833;28;125040;-61
2021/01/29 14:25:44;;;;;;;;;20.60;18.00;;;;;11.90;24.69;96831.59;6207005;28;126791;-63
2021/01/29 14:29:01;;;;;;;;;19.00;17.60;;;;;11.84;24.44;96832.69;6201876;28;125007;-63
2021/01/29 14:32:06;;;;;;;;;19.00;16.80;;;;;11.74;24.84;96827.34;6194989;28;124898;-60
2021/01/29 14:35:16;;;;;;;;;25.00;21.00;;;;;11.62;24.73;96827.69;6205021;28;127326;-62
2021/01/29 14:38:33;;;;;;;;;22.00;20.50;;;;;11.55;25.03;96821.75;6195261;28;126236;-63
2021/01/29 14:41:34;;;;;;;;;23.50;21.00;;;;;11.34;24.79;96805.97;6186037;28;126491;-62
2021/01/29 14:45:02;;;;;;;;;18.00;17.00;;;;;11.20;25.48;96806.53;6205769;28;125302;-61
2021/01/29 14:48:12;;;;;;;;;22.50;18.50;;;;;11.17;25.23;96803.59;6175353;28;126481;-61
2021/01/29 14:51:35;;;;;;;;;19.00;17.00;;;;;11.09;25.30;96799.56;6203849;28;126529;-62
2021/01/29 14:54:44;;;;;;;;;21.00;18.00;;;;;11.06;25.20;96796.63;6197041;28;126413;-61
2021/01/29 14:57:45;;;;;;;;;20.40;19.40;;;;;10.87;25.56;96782.94;6191946;28;124186;-61
2021/01/29 15:00:50;;;;;;;;;18.00;16.00;;;;;11.00;25.58;96795.81;6207431;28;127004;-61
2021/01/29 15:04:11;;;;;;;;;20.80;19.00;;;;;10.89;25.75;96788.88;6204115;28;126065;-62